sensor_id;sensor_type;location;lat;lon;timestamp;temperature;humidity
3660;DHT22;1846;51.482;7.224;2023-04-24T00:00:38;12.50;99.90
3660;DHT22;1846;51.482;7.224;2023-04-24T00:03:10;12.40;99.90
3660;DHT22;1846;51.482;7.224;2023-04-24T00:05:41;12.50;99.90
3660;DHT22;1846;51.482;7.224;2023-04-24T00:08:09;12.50;99.90
3660;DHT22;1846;51.482;7.224;2023-04-24T00:10:36;12.60;99.90
3660;DHT22;1846;51.482;7.224;2023-04-24T00:13:03;12.60;99.90
3660;DHT22;1846;51.482;7.224;2023-04-24T00:15:30;12.50;99.90
3660;DHT22;1846;51.482;7.224;2023-04-24T00:17:59;12.60;99.90
3660;DHT22;1846;51.482;7.224;2023-04-24T00:20:26;12.40;99.90
3660;DHT22;1846;51.482;7.224;2023-04-24T00:22:56;12.40;99.90
3660;DHT22;1846;51.482;7.224;2023-04-24T00:25:29;12.30;99.90
3660;DHT22;1846;51.482;7.224;2023-04-24T00:27:56;12.20;99.90
3660;DHT22;1846;51.482;7.224;2023-04-24T00:30:23;12.20;99.90
3660;DHT22;1846;51.482;7.224;2023-04-24T00:32:50;12.20;99.90
3660;DHT22;1846;51.482;7.224;2023-04-24T00:35:18;12.20;99.90
3660;DHT22;1846;51.482;7.224;2023-04-24T00:37:46;12.10;99.90
3660;DHT22;1846;51.482;7.224;2023-04-24T00:40:14;12.10;99.90
3660;DHT22;1846;51.482;7.224;2023-04-24T00:42:43;11.90;99.90
3660;DHT22;1846;51.482;7.224;2023-04-24T00:45:10;12.00;99.90
3660;DHT22;1846;51.482;7.224;2023-04-24T00:47:38;11.80;99.90
3660;DHT22;1846;51.482;7.224;2023-04-24T00:50:10;11.80;99.90
3660;DHT22;1846;51.482;7.224;2023-04-24T00:52:38;12.00;99.90
3660;DHT22;1846;51.482;7.224;2023-04-24T00:55:07;11.70;99.90
3660;DHT22;1846;51.482;7.224;2023-04-24T00:57:37;11.70;99.90
3660;DHT22;1846;51.482;7.224;2023-04-24T01:00:09;11.70;99.90
3660;DHT22;1846;51.482;7.224;2023-04-24T01:02:43;11.60;99.90
3660;DHT22;1846;51.482;7.224;2023-04-24T01:05:10;11.60;99.90
3660;DHT22;1846;51.482;7.224;2023-04-24T01:07:41;11.60;99.90
3660;DHT22;1846;51.482;7.224;2023-04-24T01:10:11;11.60;99.90
3660;DHT22;1846;51.482;7.224;2023-04-24T01:12:43;11.50;99.90
3660;DHT22;1846;51.482;7.224;2023-04-24T01:15:11;11.50;99.90
3660;DHT22;1846;51.482;7.224;2023-04-24T01:17:38;11.50;99.90
3660;DHT22;1846;51.482;7.224;2023-04-24T01:20:08;11.40;99.90
3660;DHT22;1846;51.482;7.224;2023-04-24T01:22:37;11.50;99.90
3660;DHT22;1846;51.482;7.224;2023-04-24T01:25:07;11.40;99.90
3660;DHT22;1846;51.482;7.224;2023-04-24T01:27:34;11.60;99.90
3660;DHT22;1846;51.482;7.224;2023-04-24T01:30:06;11.60;99.90
3660;DHT22;1846;51.482;7.224;2023-04-24T01:32:33;11.40;99.90
3660;DHT22;1846;51.482;7.224;2023-04-24T01:35:01;11.40;99.90
3660;DHT22;1846;51.482;7.224;2023-04-24T01:37:28;11.30;99.90
3660;DHT22;1846;51.482;7.224;2023-04-24T01:39:56;11.40;99.90
3660;DHT22;1846;51.482;7.224;2023-04-24T01:42:23;11.40;99.90
3660;DHT22;1846;51.482;7.224;2023-04-24T01:44:51;11.30;99.90
3660;DHT22;1846;51.482;7.224;2023-04-24T01:47:18;11.40;99.90
3660;DHT22;1846;51.482;7.224;2023-04-24T01:49:48;11.30;99.90
3660;DHT22;1846;51.482;7.224;2023-04-24T01:52:17;11.30;99.90
3660;DHT22;1846;51.482;7.224;2023-04-24T01:54:44;11.30;99.90
3660;DHT22;1846;51.482;7.224;2023-04-24T01:57:13;11.40;99.90
3660;DHT22;1846;51.482;7.224;2023-04-24T01:59:40;11.30;99.90
3660;DHT22;1846;51.482;7.224;2023-04-24T02:02:07;11.20;99.90
3660;DHT22;1846;51.482;7.224;2023-04-24T02:04:34;11.10;99.90
3660;DHT22;1846;51.482;7.224;2023-04-24T02:07:01;11.10;99.90
3660;DHT22;1846;51.482;7.224;2023-04-24T02:09:28;11.00;99.90
3660;DHT22;1846;51.482;7.224;2023-04-24T02:11:55;10.90;99.90
3660;DHT22;1846;51.482;7.224;2023-04-24T02:14:24;10.90;99.90
3660;DHT22;1846;51.482;7.224;2023-04-24T02:16:57;10.80;99.90
3660;DHT22;1846;51.482;7.224;2023-04-24T02:19:24;10.70;99.90
3660;DHT22;1846;51.482;7.224;2023-04-24T02:21:51;10.80;99.90
3660;DHT22;1846;51.482;7.224;2023-04-24T02:24:17;10.90;99.90
3660;DHT22;1846;51.482;7.224;2023-04-24T02:26:45;10.70;99.90
3660;DHT22;1846;51.482;7.224;2023-04-24T02:29:11;10.40;99.90
3660;DHT22;1846;51.482;7.224;2023-04-24T02:31:43;10.30;99.90
3660;DHT22;1846;51.482;7.224;2023-04-24T02:34:13;10.30;99.90
3660;DHT22;1846;51.482;7.224;2023-04-24T02:36:39;10.20;1.00
3660;DHT22;1846;51.482;7.224;2023-04-24T02:39:07;10.20;1.00
3660;DHT22;1846;51.482;7.224;2023-04-24T02:41:34;10.20;1.00
3660;DHT22;1846;51.482;7.224;2023-04-24T02:44:01;10.20;1.00
3660;DHT22;1846;51.482;7.224;2023-04-24T02:46:28;10.40;99.90
3660;DHT22;1846;51.482;7.224;2023-04-24T02:48:57;10.20;1.00
3660;DHT22;1846;51.482;7.224;2023-04-24T02:51:23;10.20;1.00
3660;DHT22;1846;51.482;7.224;2023-04-24T02:53:50;10.20;1.00
3660;DHT22;1846;51.482;7.224;2023-04-24T02:56:17;10.20;1.00
3660;DHT22;1846;51.482;7.224;2023-04-24T02:58:49;10.10;1.00
3660;DHT22;1846;51.482;7.224;2023-04-24T03:01:16;10.10;1.00
3660;DHT22;1846;51.482;7.224;2023-04-24T03:03:45;10.20;1.00
3660;DHT22;1846;51.482;7.224;2023-04-24T03:06:13;10.20;1.00
3660;DHT22;1846;51.482;7.224;2023-04-24T03:08:41;10.20;1.00
3660;DHT22;1846;51.482;7.224;2023-04-24T03:11:07;10.30;1.00
3660;DHT22;1846;51.482;7.224;2023-04-24T03:13:34;10.30;1.00
3660;DHT22;1846;51.482;7.224;2023-04-24T03:16:01;10.30;1.00
3660;DHT22;1846;51.482;7.224;2023-04-24T03:18:28;10.40;1.00
3660;DHT22;1846;51.482;7.224;2023-04-24T03:20:55;10.40;1.00
3660;DHT22;1846;51.482;7.224;2023-04-24T03:23:23;10.40;1.00
3660;DHT22;1846;51.482;7.224;2023-04-24T03:25:50;10.50;1.00
3660;DHT22;1846;51.482;7.224;2023-04-24T03:28:17;10.50;1.00
3660;DHT22;1846;51.482;7.224;2023-04-24T03:30:45;10.50;1.00
3660;DHT22;1846;51.482;7.224;2023-04-24T03:33:12;10.50;1.00
3660;DHT22;1846;51.482;7.224;2023-04-24T03:35:39;10.60;99.90
3660;DHT22;1846;51.482;7.224;2023-04-24T03:38:06;10.50;1.00
3660;DHT22;1846;51.482;7.224;2023-04-24T03:40:35;10.60;1.00
3660;DHT22;1846;51.482;7.224;2023-04-24T03:43:04;10.70;1.00
3660;DHT22;1846;51.482;7.224;2023-04-24T03:45:38;10.60;1.00
3660;DHT22;1846;51.482;7.224;2023-04-24T03:48:05;10.60;1.00
3660;DHT22;1846;51.482;7.224;2023-04-24T03:50:33;10.50;1.00
3660;DHT22;1846;51.482;7.224;2023-04-24T03:53:02;10.50;1.00
3660;DHT22;1846;51.482;7.224;2023-04-24T03:55:29;10.50;1.00
3660;DHT22;1846;51.482;7.224;2023-04-24T03:57:57;10.50;1.00
3660;DHT22;1846;51.482;7.224;2023-04-24T04:00:24;10.60;1.00
3660;DHT22;1846;51.482;7.224;2023-04-24T04:02:51;10.60;1.00
3660;DHT22;1846;51.482;7.224;2023-04-24T04:05:19;10.50;1.00
3660;DHT22;1846;51.482;7.224;2023-04-24T04:07:46;10.50;1.00
3660;DHT22;1846;51.482;7.224;2023-04-24T04:10:15;10.50;1.00
3660;DHT22;1846;51.482;7.224;2023-04-24T04:12:42;10.50;1.00
3660;DHT22;1846;51.482;7.224;2023-04-24T04:15:14;10.60;1.00
3660;DHT22;1846;51.482;7.224;2023-04-24T04:17:42;10.60;1.00
3660;DHT22;1846;51.482;7.224;2023-04-24T04:20:09;10.50;1.00
3660;DHT22;1846;51.482;7.224;2023-04-24T04:22:36;10.60;1.00
3660;DHT22;1846;51.482;7.224;2023-04-24T04:25:06;10.60;1.00
3660;DHT22;1846;51.482;7.224;2023-04-24T04:27:34;10.70;1.00
3660;DHT22;1846;51.482;7.224;2023-04-24T04:30:02;10.70;1.00
3660;DHT22;1846;51.482;7.224;2023-04-24T04:32:31;10.80;1.00
3660;DHT22;1846;51.482;7.224;2023-04-24T04:34:59;10.70;99.90
3660;DHT22;1846;51.482;7.224;2023-04-24T04:37:28;10.70;99.90
3660;DHT22;1846;51.482;7.224;2023-04-24T04:39:55;10.70;99.90
3660;DHT22;1846;51.482;7.224;2023-04-24T04:42:23;10.80;99.90
3660;DHT22;1846;51.482;7.224;2023-04-24T04:44:53;10.80;99.90
3660;DHT22;1846;51.482;7.224;2023-04-24T04:47:22;10.80;99.90
3660;DHT22;1846;51.482;7.224;2023-04-24T04:49:50;10.80;99.90
3660;DHT22;1846;51.482;7.224;2023-04-24T04:52:18;10.60;99.90
3660;DHT22;1846;51.482;7.224;2023-04-24T04:54:45;10.60;99.90
3660;DHT22;1846;51.482;7.224;2023-04-24T04:57:12;10.60;99.90
3660;DHT22;1846;51.482;7.224;2023-04-24T04:59:39;10.70;99.90
3660;DHT22;1846;51.482;7.224;2023-04-24T05:02:07;10.60;99.90
3660;DHT22;1846;51.482;7.224;2023-04-24T05:04:36;10.70;99.90
3660;DHT22;1846;51.482;7.224;2023-04-24T05:07:11;10.70;99.90
3660;DHT22;1846;51.482;7.224;2023-04-24T05:09:52;10.60;99.90
3660;DHT22;1846;51.482;7.224;2023-04-24T05:12:21;10.80;99.90
3660;DHT22;1846;51.482;7.224;2023-04-24T05:23:29;10.90;99.90
3660;DHT22;1846;51.482;7.224;2023-04-24T05:29:14;10.90;99.90
3660;DHT22;1846;51.482;7.224;2023-04-24T05:37:12;10.80;99.90
3660;DHT22;1846;51.482;7.224;2023-04-24T05:39:43;10.80;99.90
3660;DHT22;1846;51.482;7.224;2023-04-24T05:42:14;10.60;99.90
3660;DHT22;1846;51.482;7.224;2023-04-24T05:50:28;10.40;1.00
3660;DHT22;1846;51.482;7.224;2023-04-24T05:50:45;10.20;99.90
3660;DHT22;1846;51.482;7.224;2023-04-24T05:53:15;10.10;99.90
3660;DHT22;1846;51.482;7.224;2023-04-24T05:55:53;10.10;99.90
3660;DHT22;1846;51.482;7.224;2023-04-24T05:58:57;9.90;99.90
3660;DHT22;1846;51.482;7.224;2023-04-24T06:01:38;9.70;99.90
3660;DHT22;1846;51.482;7.224;2023-04-24T06:04:52;9.80;1.00
3660;DHT22;1846;51.482;7.224;2023-04-24T06:08:07;9.90;99.90
3660;DHT22;1846;51.482;7.224;2023-04-24T06:10:39;9.80;21.90
3660;DHT22;1846;51.482;7.224;2023-04-24T06:13:32;9.90;99.90
3660;DHT22;1846;51.482;7.224;2023-04-24T06:15:59;10.10;1.00
3660;DHT22;1846;51.482;7.224;2023-04-24T06:21:42;10.00;1.00
3660;DHT22;1846;51.482;7.224;2023-04-24T06:24:08;10.00;1.00
3660;DHT22;1846;51.482;7.224;2023-04-24T06:26:48;10.10;1.00
3660;DHT22;1846;51.482;7.224;2023-04-24T06:32:30;9.90;1.00
3660;DHT22;1846;51.482;7.224;2023-04-24T06:36:14;10.00;1.00
3660;DHT22;1846;51.482;7.224;2023-04-24T06:38:37;10.10;1.00
3660;DHT22;1846;51.482;7.224;2023-04-24T06:41:40;10.10;1.00
3660;DHT22;1846;51.482;7.224;2023-04-24T06:44:23;10.10;99.40
3660;DHT22;1846;51.482;7.224;2023-04-24T06:46:49;10.20;1.00
3660;DHT22;1846;51.482;7.224;2023-04-24T06:52:58;10.40;99.90
3660;DHT22;1846;51.482;7.224;2023-04-24T06:55:27;10.40;1.00
3660;DHT22;1846;51.482;7.224;2023-04-24T07:25:56;10.20;99.90
3660;DHT22;1846;51.482;7.224;2023-04-24T07:31:10;10.30;99.90
3660;DHT22;1846;51.482;7.224;2023-04-24T07:34:22;10.20;76.90
3660;DHT22;1846;51.482;7.224;2023-04-24T07:37:35;10.10;99.90
3660;DHT22;1846;51.482;7.224;2023-04-24T07:40:45;10.00;44.60
3660;DHT22;1846;51.482;7.224;2023-04-24T07:43:34;9.80;1.00
3660;DHT22;1846;51.482;7.224;2023-04-24T07:46:26;9.90;99.90
3660;DHT22;1846;51.482;7.224;2023-04-24T07:49:27;9.60;1.00
3660;DHT22;1846;51.482;7.224;2023-04-24T07:51:56;9.70;99.90
3660;DHT22;1846;51.482;7.224;2023-04-24T07:55:28;9.80;99.90
3660;DHT22;1846;51.482;7.224;2023-04-24T08:01:08;9.80;1.00
3660;DHT22;1846;51.482;7.224;2023-04-24T08:04:18;9.70;99.90
3660;DHT22;1846;51.482;7.224;2023-04-24T08:06:55;9.70;1.00
3660;DHT22;1846;51.482;7.224;2023-04-24T08:23:32;9.70;99.90
3660;DHT22;1846;51.482;7.224;2023-04-24T08:26:06;9.60;1.00
3660;DHT22;1846;51.482;7.224;2023-04-24T08:28:36;9.50;99.90
3660;DHT22;1846;51.482;7.224;2023-04-24T08:31:15;9.30;99.90
3660;DHT22;1846;51.482;7.224;2023-04-24T08:33:56;9.30;99.90
3660;DHT22;1846;51.482;7.224;2023-04-24T08:36:30;9.30;1.00
3660;DHT22;1846;51.482;7.224;2023-04-24T08:39:05;9.30;95.30
3660;DHT22;1846;51.482;7.224;2023-04-24T08:41:49;9.10;99.90
3660;DHT22;1846;51.482;7.224;2023-04-24T11:43:58;9.30;1.00
3660;DHT22;1846;51.482;7.224;2023-04-24T11:46:46;9.70;1.00
3660;DHT22;1846;51.482;7.224;2023-04-24T12:21:42;9.70;1.00
3660;DHT22;1846;51.482;7.224;2023-04-24T12:27:52;10.60;99.90
3660;DHT22;1846;51.482;7.224;2023-04-24T12:39:34;11.50;99.90
3660;DHT22;1846;51.482;7.224;2023-04-24T12:42:17;11.20;99.90
3660;DHT22;1846;51.482;7.224;2023-04-24T12:52:22;10.90;99.90
3660;DHT22;1846;51.482;7.224;2023-04-24T13:28:02;11.50;99.90
3660;DHT22;1846;51.482;7.224;2023-04-24T13:31:24;11.50;99.90
3660;DHT22;1846;51.482;7.224;2023-04-24T13:34:46;11.60;99.90
3660;DHT22;1846;51.482;7.224;2023-04-24T13:37:24;11.60;99.90
3660;DHT22;1846;51.482;7.224;2023-04-24T13:40:03;11.50;99.90
3660;DHT22;1846;51.482;7.224;2023-04-24T13:42:32;11.30;99.90
3660;DHT22;1846;51.482;7.224;2023-04-24T13:45:05;11.10;99.90
3660;DHT22;1846;51.482;7.224;2023-04-24T13:47:41;11.20;99.90
3660;DHT22;1846;51.482;7.224;2023-04-24T13:53:48;11.00;99.90
3660;DHT22;1846;51.482;7.224;2023-04-24T13:56:47;11.10;99.90
3660;DHT22;1846;51.482;7.224;2023-04-24T13:59:14;11.10;99.90
3660;DHT22;1846;51.482;7.224;2023-04-24T14:02:17;11.10;99.90
3660;DHT22;1846;51.482;7.224;2023-04-24T14:04:56;11.20;99.90
3660;DHT22;1846;51.482;7.224;2023-04-24T14:08:13;11.40;99.90
3660;DHT22;1846;51.482;7.224;2023-04-24T14:11:39;11.30;99.90
3660;DHT22;1846;51.482;7.224;2023-04-24T14:14:18;11.40;99.90
3660;DHT22;1846;51.482;7.224;2023-04-24T14:17:28;11.60;99.90
3660;DHT22;1846;51.482;7.224;2023-04-24T14:20:11;11.50;99.90
3660;DHT22;1846;51.482;7.224;2023-04-24T14:23:25;11.40;99.90
3660;DHT22;1846;51.482;7.224;2023-04-24T14:26:15;11.30;99.90
3660;DHT22;1846;51.482;7.224;2023-04-24T14:29:10;11.40;99.90
3660;DHT22;1846;51.482;7.224;2023-04-24T14:32:22;11.50;99.90
3660;DHT22;1846;51.482;7.224;2023-04-24T14:38:11;11.70;99.90
3660;DHT22;1846;51.482;7.224;2023-04-24T14:40:55;11.70;99.90
3660;DHT22;1846;51.482;7.224;2023-04-24T14:43:35;11.60;99.90
3660;DHT22;1846;51.482;7.224;2023-04-24T14:49:30;11.40;99.90
3660;DHT22;1846;51.482;7.224;2023-04-24T14:55:07;11.30;99.90
3660;DHT22;1846;51.482;7.224;2023-04-24T14:58:03;11.40;99.90
3660;DHT22;1846;51.482;7.224;2023-04-24T15:00:53;11.10;99.90
3660;DHT22;1846;51.482;7.224;2023-04-24T15:03:47;11.00;99.90
3660;DHT22;1846;51.482;7.224;2023-04-24T15:06:16;11.00;99.90
3660;DHT22;1846;51.482;7.224;2023-04-24T15:08:44;10.80;99.90
3660;DHT22;1846;51.482;7.224;2023-04-24T15:11:45;10.70;99.90
3660;DHT22;1846;51.482;7.224;2023-04-24T15:14:33;10.50;99.90
3660;DHT22;1846;51.482;7.224;2023-04-24T15:17:15;10.40;99.90
3660;DHT22;1846;51.482;7.224;2023-04-24T15:19:47;10.40;1.00
3660;DHT22;1846;51.482;7.224;2023-04-24T15:25:58;10.40;97.00
3660;DHT22;1846;51.482;7.224;2023-04-24T15:28:35;10.30;1.00
3660;DHT22;1846;51.482;7.224;2023-04-24T15:31:11;10.10;1.00
3660;DHT22;1846;51.482;7.224;2023-04-24T15:33:50;10.10;1.00
3660;DHT22;1846;51.482;7.224;2023-04-24T15:36:45;10.10;1.00
3660;DHT22;1846;51.482;7.224;2023-04-24T15:39:15;10.20;1.00
3660;DHT22;1846;51.482;7.224;2023-04-24T15:41:58;10.20;20.30
3660;DHT22;1846;51.482;7.224;2023-04-24T15:45:17;10.50;1.00
3660;DHT22;1846;51.482;7.224;2023-04-24T15:47:58;10.70;99.90
3660;DHT22;1846;51.482;7.224;2023-04-24T15:50:42;10.90;1.00
3660;DHT22;1846;51.482;7.224;2023-04-24T15:53:29;11.00;99.90
3660;DHT22;1846;51.482;7.224;2023-04-24T15:56:24;11.10;99.90
3660;DHT22;1846;51.482;7.224;2023-04-24T15:58:58;11.20;99.90
3660;DHT22;1846;51.482;7.224;2023-04-24T16:01:35;11.20;99.90
3660;DHT22;1846;51.482;7.224;2023-04-24T16:04:05;11.30;99.90
3660;DHT22;1846;51.482;7.224;2023-04-24T16:06:51;11.30;99.90
3660;DHT22;1846;51.482;7.224;2023-04-24T16:09:31;11.50;99.90
3660;DHT22;1846;51.482;7.224;2023-04-24T16:15:36;11.50;99.90
3660;DHT22;1846;51.482;7.224;2023-04-24T16:18:35;11.60;99.90
3660;DHT22;1846;51.482;7.224;2023-04-24T16:21:37;11.50;99.90
3660;DHT22;1846;51.482;7.224;2023-04-24T16:24:06;11.60;99.90
3660;DHT22;1846;51.482;7.224;2023-04-24T16:27:20;11.50;99.90
3660;DHT22;1846;51.482;7.224;2023-04-24T16:38:38;11.50;99.90
3660;DHT22;1846;51.482;7.224;2023-04-24T16:41:31;11.50;99.90
3660;DHT22;1846;51.482;7.224;2023-04-24T16:44:35;11.30;99.90
3660;DHT22;1846;51.482;7.224;2023-04-24T16:47:27;11.40;99.90
3660;DHT22;1846;51.482;7.224;2023-04-24T16:50:09;11.40;99.90
3660;DHT22;1846;51.482;7.224;2023-04-24T16:53:13;11.50;99.90
3660;DHT22;1846;51.482;7.224;2023-04-24T16:56:13;11.40;99.90
3660;DHT22;1846;51.482;7.224;2023-04-24T16:59:16;11.30;99.90
3660;DHT22;1846;51.482;7.224;2023-04-24T17:02:20;11.40;99.90
3660;DHT22;1846;51.482;7.224;2023-04-24T17:07:51;11.40;99.90
3660;DHT22;1846;51.482;7.224;2023-04-24T17:10:23;11.30;99.90
3660;DHT22;1846;51.482;7.224;2023-04-24T17:12:56;11.30;99.90
3660;DHT22;1846;51.482;7.224;2023-04-24T17:15:58;11.20;99.90
3660;DHT22;1846;51.482;7.224;2023-04-24T17:19:30;11.20;99.90
3660;DHT22;1846;51.482;7.224;2023-04-24T17:21:32;10.90;99.90
3660;DHT22;1846;51.482;7.224;2023-04-24T17:24:28;10.60;99.90
3660;DHT22;1846;51.482;7.224;2023-04-24T17:27:25;10.60;99.90
3660;DHT22;1846;51.482;7.224;2023-04-24T17:30:30;10.30;99.90
3660;DHT22;1846;51.482;7.224;2023-04-24T17:34:01;9.90;99.90
3660;DHT22;1846;51.482;7.224;2023-04-24T17:39:24;9.50;99.90
3660;DHT22;1846;51.482;7.224;2023-04-24T17:42:13;9.50;99.90
3660;DHT22;1846;51.482;7.224;2023-04-24T17:44:56;9.40;99.90
3660;DHT22;1846;51.482;7.224;2023-04-24T17:47:45;9.50;99.90
3660;DHT22;1846;51.482;7.224;2023-04-24T17:50:19;9.40;99.90
3660;DHT22;1846;51.482;7.224;2023-04-24T17:52:56;9.40;99.90
3660;DHT22;1846;51.482;7.224;2023-04-24T17:55:29;9.60;99.90
3660;DHT22;1846;51.482;7.224;2023-04-24T17:58:13;9.50;99.90
3660;DHT22;1846;51.482;7.224;2023-04-24T18:00:49;9.50;99.90
3660;DHT22;1846;51.482;7.224;2023-04-24T18:03:34;9.60;99.90
3660;DHT22;1846;51.482;7.224;2023-04-24T18:06:16;9.80;99.90
3660;DHT22;1846;51.482;7.224;2023-04-24T18:09:08;9.80;99.90
3660;DHT22;1846;51.482;7.224;2023-04-24T18:12:16;9.80;99.90
3660;DHT22;1846;51.482;7.224;2023-04-24T18:14:53;9.80;99.90
3660;DHT22;1846;51.482;7.224;2023-04-24T18:17:45;9.80;99.90
3660;DHT22;1846;51.482;7.224;2023-04-24T18:20:27;9.70;99.90
3660;DHT22;1846;51.482;7.224;2023-04-24T18:23:27;9.60;99.90
3660;DHT22;1846;51.482;7.224;2023-04-24T18:26:36;9.70;99.90
3660;DHT22;1846;51.482;7.224;2023-04-24T18:29:08;9.70;99.90
3660;DHT22;1846;51.482;7.224;2023-04-24T18:35:17;9.80;99.90
3660;DHT22;1846;51.482;7.224;2023-04-24T18:37:49;9.80;99.90
3660;DHT22;1846;51.482;7.224;2023-04-24T18:40:25;9.70;99.90
3660;DHT22;1846;51.482;7.224;2023-04-24T18:45:31;9.80;99.90
3660;DHT22;1846;51.482;7.224;2023-04-24T18:48:06;9.80;99.90
3660;DHT22;1846;51.482;7.224;2023-04-24T18:50:50;9.80;99.90
3660;DHT22;1846;51.482;7.224;2023-04-24T18:53:19;9.70;99.90
3660;DHT22;1846;51.482;7.224;2023-04-24T18:55:58;9.80;99.90
3660;DHT22;1846;51.482;7.224;2023-04-24T18:58:38;9.70;99.90
3660;DHT22;1846;51.482;7.224;2023-04-24T19:02:00;9.60;99.90
3660;DHT22;1846;51.482;7.224;2023-04-24T19:04:55;9.60;99.90
3660;DHT22;1846;51.482;7.224;2023-04-24T19:07:49;9.60;99.90
3660;DHT22;1846;51.482;7.224;2023-04-24T19:11:01;9.50;99.90
3660;DHT22;1846;51.482;7.224;2023-04-24T19:14:29;9.50;99.90
3660;DHT22;1846;51.482;7.224;2023-04-24T19:17:32;9.60;99.90
3660;DHT22;1846;51.482;7.224;2023-04-24T19:20:27;9.60;99.90
3660;DHT22;1846;51.482;7.224;2023-04-24T19:26:33;9.50;99.90
3660;DHT22;1846;51.482;7.224;2023-04-24T19:29:46;9.40;99.90
3660;DHT22;1846;51.482;7.224;2023-04-24T19:35:14;9.50;99.90
3660;DHT22;1846;51.482;7.224;2023-04-24T19:38:03;9.40;99.90
3660;DHT22;1846;51.482;7.224;2023-04-24T19:41:50;9.30;99.90
3660;DHT22;1846;51.482;7.224;2023-04-24T19:50:49;9.30;99.90
3660;DHT22;1846;51.482;7.224;2023-04-24T19:53:28;9.30;99.90
3660;DHT22;1846;51.482;7.224;2023-04-24T20:00:07;9.20;99.90
3660;DHT22;1846;51.482;7.224;2023-04-24T20:03:12;9.20;99.90
3660;DHT22;1846;51.482;7.224;2023-04-24T20:10:12;9.20;99.90
3660;DHT22;1846;51.482;7.224;2023-04-24T20:12:34;9.30;99.90
3660;DHT22;1846;51.482;7.224;2023-04-24T20:15:44;9.20;99.90
3660;DHT22;1846;51.482;7.224;2023-04-24T20:18:22;9.20;99.90
3660;DHT22;1846;51.482;7.224;2023-04-24T20:20:56;9.10;99.90
3660;DHT22;1846;51.482;7.224;2023-04-24T20:23:37;9.20;99.90
3660;DHT22;1846;51.482;7.224;2023-04-24T20:26:40;9.20;99.90
3660;DHT22;1846;51.482;7.224;2023-04-24T20:29:21;9.20;99.90
3660;DHT22;1846;51.482;7.224;2023-04-24T20:32:40;9.20;99.90
3660;DHT22;1846;51.482;7.224;2023-04-24T20:35:56;9.00;99.90
3660;DHT22;1846;51.482;7.224;2023-04-24T20:38:46;8.90;99.90
3660;DHT22;1846;51.482;7.224;2023-04-24T20:41:49;8.90;99.90
3660;DHT22;1846;51.482;7.224;2023-04-24T20:45:06;8.80;99.90
3660;DHT22;1846;51.482;7.224;2023-04-24T20:47:51;8.80;99.90
3660;DHT22;1846;51.482;7.224;2023-04-24T20:50:46;8.90;99.90
3660;DHT22;1846;51.482;7.224;2023-04-24T20:53:32;9.10;99.90
3660;DHT22;1846;51.482;7.224;2023-04-24T20:56:26;9.00;99.90
3660;DHT22;1846;51.482;7.224;2023-04-24T20:59:11;8.90;99.90
3660;DHT22;1846;51.482;7.224;2023-04-24T21:05:07;8.80;99.90
3660;DHT22;1846;51.482;7.224;2023-04-24T21:08:04;8.90;99.90
3660;DHT22;1846;51.482;7.224;2023-04-24T21:13:48;8.90;99.90
3660;DHT22;1846;51.482;7.224;2023-04-24T21:16:52;8.90;99.90
3660;DHT22;1846;51.482;7.224;2023-04-24T21:22:27;8.90;99.90
3660;DHT22;1846;51.482;7.224;2023-04-24T21:25:19;8.80;99.90
3660;DHT22;1846;51.482;7.224;2023-04-24T21:28:23;8.80;99.90
3660;DHT22;1846;51.482;7.224;2023-04-24T21:31:03;8.70;99.90
3660;DHT22;1846;51.482;7.224;2023-04-24T21:34:10;8.70;99.90
3660;DHT22;1846;51.482;7.224;2023-04-24T21:36:52;8.60;99.90
3660;DHT22;1846;51.482;7.224;2023-04-24T21:42:42;8.60;99.90
3660;DHT22;1846;51.482;7.224;2023-04-24T21:45:16;8.60;99.90
3660;DHT22;1846;51.482;7.224;2023-04-24T21:48:13;8.60;99.90
3660;DHT22;1846;51.482;7.224;2023-04-24T21:51:24;8.50;99.90
3660;DHT22;1846;51.482;7.224;2023-04-24T21:54:11;8.50;99.90
3660;DHT22;1846;51.482;7.224;2023-04-24T21:56:47;8.40;99.90
3660;DHT22;1846;51.482;7.224;2023-04-24T21:59:39;8.40;1.00
3660;DHT22;1846;51.482;7.224;2023-04-24T22:02:26;8.50;1.00
3660;DHT22;1846;51.482;7.224;2023-04-24T22:05:14;8.60;99.90
3660;DHT22;1846;51.482;7.224;2023-04-24T22:07:58;8.50;99.90
3660;DHT22;1846;51.482;7.224;2023-04-24T22:10:47;8.50;99.90
3660;DHT22;1846;51.482;7.224;2023-04-24T22:16:02;8.40;1.00
3660;DHT22;1846;51.482;7.224;2023-04-24T22:18:49;8.30;1.00
3660;DHT22;1846;51.482;7.224;2023-04-24T22:21:20;8.30;1.00
3660;DHT22;1846;51.482;7.224;2023-04-24T22:30:15;8.10;1.00
3660;DHT22;1846;51.482;7.224;2023-04-24T22:32:53;8.10;1.00
3660;DHT22;1846;51.482;7.224;2023-04-24T22:35:41;8.10;1.00
3660;DHT22;1846;51.482;7.224;2023-04-24T22:38:26;8.10;1.00
3660;DHT22;1846;51.482;7.224;2023-04-24T22:41:02;8.00;1.00
3660;DHT22;1846;51.482;7.224;2023-04-24T22:43:45;8.10;1.00
3660;DHT22;1846;51.482;7.224;2023-04-24T22:46:28;8.10;1.00
3660;DHT22;1846;51.482;7.224;2023-04-24T22:49:02;8.10;1.00
3660;DHT22;1846;51.482;7.224;2023-04-24T22:51:51;8.00;1.00
3660;DHT22;1846;51.482;7.224;2023-04-24T22:54:42;8.10;1.00
3660;DHT22;1846;51.482;7.224;2023-04-24T22:57:39;8.20;1.00
3660;DHT22;1846;51.482;7.224;2023-04-24T23:00:19;8.10;1.00
3660;DHT22;1846;51.482;7.224;2023-04-24T23:03:03;8.10;1.00
3660;DHT22;1846;51.482;7.224;2023-04-24T23:05:41;8.00;1.00
3660;DHT22;1846;51.482;7.224;2023-04-24T23:08:31;7.90;1.00
3660;DHT22;1846;51.482;7.224;2023-04-24T23:11:01;7.90;1.00
3660;DHT22;1846;51.482;7.224;2023-04-24T23:14:11;7.90;1.00
3660;DHT22;1846;51.482;7.224;2023-04-24T23:16:46;7.90;1.00
3660;DHT22;1846;51.482;7.224;2023-04-24T23:19:23;7.90;1.00
3660;DHT22;1846;51.482;7.224;2023-04-24T23:21:59;8.00;1.00
3660;DHT22;1846;51.482;7.224;2023-04-24T23:24:31;8.00;1.00
3660;DHT22;1846;51.482;7.224;2023-04-24T23:27:15;8.00;1.00
3660;DHT22;1846;51.482;7.224;2023-04-24T23:30:15;8.10;1.00
3660;DHT22;1846;51.482;7.224;2023-04-24T23:33:01;8.00;1.00
3660;DHT22;1846;51.482;7.224;2023-04-24T23:35:51;8.00;1.00
3660;DHT22;1846;51.482;7.224;2023-04-24T23:38:22;7.90;1.00
3660;DHT22;1846;51.482;7.224;2023-04-24T23:40:59;7.80;1.00
3660;DHT22;1846;51.482;7.224;2023-04-24T23:43:42;7.80;1.00
3660;DHT22;1846;51.482;7.224;2023-04-24T23:46:16;7.80;1.00
3660;DHT22;1846;51.482;7.224;2023-04-24T23:49:00;7.70;1.00
3660;DHT22;1846;51.482;7.224;2023-04-24T23:51:47;7.70;1.00
3660;DHT22;1846;51.482;7.224;2023-04-24T23:54:17;7.80;1.00
3660;DHT22;1846;51.482;7.224;2023-04-24T23:56:50;7.80;1.00
